Terminal Aerodrome Forecast
Issued by NWS

Home | Current Version | Previous Version | Text Only | Print | Product List | Glossary On
Versions: 1 2 3 4 5 6 7 8 9 10 11 12
230
FTUS45 KRIW 200520
TAFBPI
TAF
KBPI 200520Z 2006/2106 33007KT P6SM SCT120
     FM202000 30011G21KT P6SM SCT110 BKN200
     FM210100 32009KT P6SM SCT100 BKN200=

USA.gov is the U.S. government's official web portal to all federal, state and local government web resources and services.